Time;durP1;ratioP1;P1;durP2;ratioP2;P2;SDS_P1;SDS_P2;PMS_P1;PMS_P2;Temp;Humidity;BMP_temperature;BMP_pressure;BME280_temperature;BME280_humidity;BME280_pressure;Samples;Min_cycle;Max_cycle;Signal;HPM_P1;HPM_P2
2022/05/15 00:02:25;;;;;;;0.30;0.20;;;12.30;99.90;;;;;;5075014;28;20993;-93
2022/05/15 00:04:52;;;;;;;0.30;0.20;;;12.20;99.90;;;;;;5068707;28;20463;-92
2022/05/15 00:07:19;;;;;;;0.30;0.20;;;12.20;99.90;;;;;;5071597;28;20509;-92
2022/05/15 00:09:46;;;;;;;0.30;0.20;;;12.00;99.90;;;;;;5070472;28;20454;-93
2022/05/15 00:12:16;;;;;;;0.30;0.20;;;11.90;99.90;;;;;;5075979;28;20460;-92
2022/05/15 00:14:44;;;;;;;0.30;0.20;;;12.00;99.90;;;;;;5071465;28;20911;-92
2022/05/15 00:17:11;;;;;;;0.30;0.20;;;11.90;99.90;;;;;;5068692;28;21039;-92
2022/05/15 00:19:39;;;;;;;0.30;0.20;;;11.90;99.90;;;;;;5070512;28;20501;-92
2022/05/15 00:22:06;;;;;;;0.30;0.20;;;11.80;99.90;;;;;;5065975;28;21115;-92
2022/05/15 00:24:34;;;;;;;0.30;0.20;;;11.80;99.90;;;;;;5065316;28;20516;-92
2022/05/15 00:27:00;;;;;;;0.30;0.20;;;11.60;99.90;;;;;;5071504;28;20515;-92
2022/05/15 00:29:29;;;;;;;0.30;0.20;;;11.50;99.90;;;;;;5069799;28;20504;-91
2022/05/15 00:31:56;;;;;;;0.30;0.20;;;11.50;99.90;;;;;;5069143;28;20464;-93
2022/05/15 00:34:24;;;;;;;0.30;0.20;;;11.50;99.90;;;;;;5066302;28;20533;-93
2022/05/15 00:36:51;;;;;;;0.30;0.20;;;11.30;99.90;;;;;;5067269;28;20450;-92
2022/05/15 00:39:18;;;;;;;0.30;0.20;;;11.40;99.90;;;;;;5064684;28;20450;-92
2022/05/15 00:41:46;;;;;;;0.30;0.20;;;11.30;99.90;;;;;;5062768;28;20454;-93
2022/05/15 00:44:13;;;;;;;0.30;0.20;;;11.20;99.90;;;;;;5064355;28;20485;-93
2022/05/15 00:46:43;;;;;;;0.30;0.20;;;11.20;99.90;;;;;;5078422;28;20454;-93
2022/05/15 00:49:13;;;;;;;0.30;0.20;;;11.10;99.90;;;;;;5078056;28;20969;-92
2022/05/15 00:51:44;;;;;;;0.30;0.20;;;11.10;99.90;;;;;;5067602;28;20464;-92
2022/05/15 00:54:15;;;;;;;0.30;0.20;;;11.10;99.90;;;;;;5068400;28;20841;-92
2022/05/15 00:56:52;;;;;;;0.30;0.20;;;11.10;99.90;;;;;;5067889;28;20526;-93
2022/05/15 00:59:22;;;;;;;0.30;0.20;;;11.10;99.90;;;;;;5071224;28;20500;-92
2022/05/15 01:01:50;;;;;;;0.30;0.20;;;11.20;99.90;;;;;;5083022;28;20441;-92
2022/05/15 01:04:18;;;;;;;0.30;0.20;;;11.20;99.90;;;;;;5067796;28;20482;-92
2022/05/15 01:06:45;;;;;;;0.30;0.20;;;11.20;99.90;;;;;;5071367;28;20531;-92
2022/05/15 01:09:14;;;;;;;0.30;0.20;;;11.30;99.90;;;;;;5077780;28;20472;-93
2022/05/15 01:11:43;;;;;;;0.30;0.20;;;11.20;99.90;;;;;;5067376;28;20460;-93
2022/05/15 01:14:13;;;;;;;0.30;0.20;;;11.10;99.90;;;;;;5068318;28;20444;-92
2022/05/15 01:16:41;;;;;;;0.30;0.20;;;11.10;99.90;;;;;;5088645;28;20467;-92
2022/05/15 01:19:09;;;;;;;0.30;0.20;;;11.10;99.90;;;;;;5094575;28;20457;-92
2022/05/15 01:21:40;;;;;;;0.30;0.20;;;11.10;99.90;;;;;;5089358;28;20535;-93
2022/05/15 01:24:09;;;;;;;0.30;0.20;;;11.10;99.90;;;;;;5095923;28;20485;-92
2022/05/15 01:26:38;;;;;;;0.30;0.20;;;11.20;99.90;;;;;;5078487;28;20451;-92
2022/05/15 01:29:07;;;;;;;0.30;0.20;;;11.30;99.90;;;;;;5072112;28;20548;-92
2022/05/15 01:31:36;;;;;;;0.30;0.20;;;11.30;99.90;;;;;;5071019;28;20452;-93
2022/05/15 01:34:07;;;;;;;0.30;0.20;;;11.30;99.90;;;;;;5069575;28;20462;-92
2022/05/15 01:36:34;;;;;;;0.30;0.20;;;11.30;99.90;;;;;;5076038;28;20524;-92
2022/05/15 01:39:03;;;;;;;0.30;0.20;;;11.30;99.90;;;;;;5072664;28;20899;-92
2022/05/15 01:41:30;;;;;;;0.30;0.20;;;11.30;99.90;;;;;;5073374;28;20517;-92
2022/05/15 01:43:57;;;;;;;0.30;0.20;;;11.20;99.90;;;;;;5075229;28;20483;-93
2022/05/15 01:46:27;;;;;;;0.30;0.20;;;11.30;99.90;;;;;;5076115;28;20842;-92
2022/05/15 01:48:54;;;;;;;0.30;0.20;;;11.10;99.90;;;;;;5071486;28;20862;-93
2022/05/15 01:51:22;;;;;;;0.30;0.20;;;11.00;99.90;;;;;;5072779;28;20596;-93
2022/05/15 01:53:49;;;;;;;0.30;0.20;;;11.00;99.90;;;;;;5068826;28;20468;-92
2022/05/15 01:56:18;;;;;;;0.30;0.20;;;11.00;99.90;;;;;;5074820;28;20460;-93
2022/05/15 01:58:45;;;;;;;0.30;0.20;;;10.90;99.90;;;;;;5072210;28;20824;-92
2022/05/15 02:01:12;;;;;;;0.30;0.20;;;10.90;99.90;;;;;;5071813;28;20857;-92
2022/05/15 02:03:39;;;;;;;0.30;0.20;;;10.80;99.90;;;;;;5074365;28;20491;-92
2022/05/15 02:06:06;;;;;;;0.30;0.20;;;10.70;99.90;;;;;;5074069;28;20456;-93
2022/05/15 02:08:35;;;;;;;0.30;0.20;;;10.70;99.90;;;;;;5069948;28;20513;-92
2022/05/15 02:11:02;;;;;;;0.30;0.20;;;10.70;99.90;;;;;;5075154;28;20451;-93
2022/05/15 02:13:31;;;;;;;0.30;0.20;;;10.70;99.90;;;;;;5070282;28;20461;-92
2022/05/15 02:15:59;;;;;;;0.30;0.20;;;10.50;99.90;;;;;;5069630;28;20504;-93
2022/05/15 02:18:26;;;;;;;0.30;0.20;;;10.50;99.90;;;;;;5067424;28;20947;-93
2022/05/15 02:20:53;;;;;;;0.30;0.20;;;10.40;99.90;;;;;;5064974;28;20513;-93
2022/05/15 02:23:21;;;;;;;0.30;0.20;;;10.40;99.90;;;;;;5067844;28;20495;-93
2022/05/15 02:25:48;;;;;;;0.30;0.20;;;10.40;99.90;;;;;;5067078;28;20464;-92
2022/05/15 02:28:15;;;;;;;0.30;0.20;;;10.30;99.90;;;;;;5069100;28;20472;-93
2022/05/15 02:30:44;;;;;;;0.30;0.20;;;10.30;99.90;;;;;;5069517;28;20460;-93
2022/05/15 02:33:11;;;;;;;0.30;0.20;;;10.40;99.90;;;;;;5068800;28;20506;-93
2022/05/15 02:35:38;;;;;;;0.30;0.20;;;10.40;99.90;;;;;;5069452;28;20547;-92
2022/05/15 02:38:05;;;;;;;0.30;0.20;;;10.40;99.90;;;;;;5065820;28;20535;-92
2022/05/15 02:40:32;;;;;;;0.30;0.20;;;10.30;99.90;;;;;;5068594;28;20528;-93
2022/05/15 02:42:59;;;;;;;0.30;0.20;;;10.30;99.90;;;;;;5065314;28;20495;-92
2022/05/15 02:45:27;;;;;;;0.30;0.20;;;10.40;99.90;;;;;;5072501;28;20456;-93
2022/05/15 02:47:55;;;;;;;0.30;0.20;;;10.40;99.90;;;;;;5066471;28;20468;-92
2022/05/15 02:53:04;;;;;;;0.30;0.20;;;10.40;99.90;;;;;;5075741;28;20427;-93
2022/05/15 02:55:31;;;;;;;0.30;0.20;;;10.40;99.90;;;;;;5090385;28;20498;-92
2022/05/15 02:57:58;;;;;;;0.30;0.20;;;10.40;99.90;;;;;;5101172;28;20447;-92
2022/05/15 03:00:27;;;;;;;0.30;0.20;;;10.30;99.90;;;;;;5093380;28;20466;-92
2022/05/15 03:02:55;;;;;;;0.30;0.20;;;10.30;99.90;;;;;;5105910;28;20436;-93
2022/05/15 03:05:23;;;;;;;0.30;0.20;;;10.20;99.90;;;;;;5099619;28;20537;-92
2022/05/15 03:07:50;;;;;;;0.30;0.20;;;10.20;99.90;;;;;;5090496;28;20448;-93
2022/05/15 03:10:21;;;;;;;0.30;0.10;;;10.30;99.90;;;;;;5089366;28;20988;-92
2022/05/15 03:12:48;;;;;;;0.30;0.20;;;10.30;99.90;;;;;;5092998;28;20470;-93
2022/05/15 03:15:15;;;;;;;0.30;0.20;;;10.40;99.90;;;;;;5095290;28;21285;-93
2022/05/15 03:17:43;;;;;;;0.30;0.10;;;10.40;99.90;;;;;;5093697;28;20466;-93
2022/05/15 03:20:14;;;;;;;0.30;0.20;;;10.40;99.90;;;;;;5089767;28;20448;-92
2022/05/15 03:22:41;;;;;;;0.30;0.20;;;10.40;99.90;;;;;;5078820;28;21001;-92
2022/05/15 03:25:09;;;;;;;0.30;0.20;;;10.40;99.90;;;;;;5066027;28;20569;-93
2022/05/15 03:27:36;;;;;;;0.30;0.20;;;10.30;99.90;;;;;;5070972;28;20539;-93
2022/05/15 03:30:03;;;;;;;0.30;0.20;;;10.40;99.90;;;;;;5075390;28;20533;-92
2022/05/15 03:32:30;;;;;;;0.30;0.20;;;10.30;99.90;;;;;;5073134;28;20520;-91
2022/05/15 03:34:57;;;;;;;0.30;0.20;;;10.30;99.90;;;;;;5071523;28;20471;-92
2022/05/15 03:37:25;;;;;;;0.30;0.20;;;10.10;99.90;;;;;;5067613;28;20475;-92
2022/05/15 03:39:54;;;;;;;0.30;0.20;;;10.30;99.90;;;;;;5068860;28;21233;-92
2022/05/15 03:42:21;;;;;;;0.30;0.20;;;10.30;99.90;;;;;;5067838;28;20464;-92
2022/05/15 03:44:47;;;;;;;0.30;0.20;;;10.30;99.90;;;;;;5067945;28;20484;-93
2022/05/15 03:47:15;;;;;;;0.30;0.20;;;10.30;99.90;;;;;;5094569;28;20513;-92
2022/05/15 03:49:42;;;;;;;0.30;0.10;;;10.40;99.90;;;;;;5086943;28;20464;-90
2022/05/15 03:52:09;;;;;;;0.30;0.20;;;10.40;99.90;;;;;;5078628;28;20520;-91
2022/05/15 03:54:37;;;;;;;0.30;0.20;;;10.60;99.90;;;;;;5075980;28;20513;-91
2022/05/15 03:57:06;;;;;;;0.30;0.20;;;10.70;99.90;;;;;;5075986;28;20455;-92
2022/05/15 03:59:35;;;;;;;0.30;0.20;;;10.70;99.90;;;;;;5066617;28;20505;-91
2022/05/15 04:02:04;;;;;;;0.30;0.20;;;10.70;99.90;;;;;;5064018;28;20981;-94
2022/05/15 04:04:31;;;;;;;0.30;0.20;;;10.70;99.90;;;;;;5071460;28;20513;-91
2022/05/15 04:06:59;;;;;;;0.30;0.20;;;10.70;99.90;;;;;;5067078;28;20528;-92
2022/05/15 04:09:26;;;;;;;0.30;0.20;;;10.80;99.90;;;;;;5067794;28;20509;-91
2022/05/15 04:11:54;;;;;;;0.30;0.20;;;11.00;99.90;;;;;;5066930;28;20466;-93
2022/05/15 04:14:22;;;;;;;0.30;0.20;;;11.10;99.90;;;;;;5070523;28;20460;-91
2022/05/15 04:16:49;;;;;;;0.30;0.20;;;11.20;99.90;;;;;;5066861;28;20447;-92
2022/05/15 04:19:16;;;;;;;0.30;0.20;;;11.30;99.90;;;;;;5067714;28;20471;-91
2022/05/15 04:21:43;;;;;;;0.30;0.20;;;11.40;99.90;;;;;;5067523;28;20904;-92
2022/05/15 04:24:13;;;;;;;0.30;0.20;;;11.40;99.90;;;;;;5066361;28;21040;-93
2022/05/15 04:26:42;;;;;;;0.30;0.20;;;11.50;99.90;;;;;;5066260;28;20919;-93
2022/05/15 04:29:10;;;;;;;0.30;0.20;;;11.60;99.90;;;;;;5063884;28;21148;-93
2022/05/15 04:31:37;;;;;;;0.30;0.20;;;11.70;99.90;;;;;;5068424;28;20441;-93
2022/05/15 04:34:05;;;;;;;0.30;0.20;;;11.80;99.90;;;;;;5082213;28;20447;-93
2022/05/15 04:36:33;;;;;;;0.30;0.20;;;11.80;99.90;;;;;;5077133;28;20524;-93
2022/05/15 04:39:01;;;;;;;0.30;0.20;;;11.90;99.90;;;;;;5073646;28;20537;-92
2022/05/15 04:41:28;;;;;;;0.30;0.20;;;11.90;99.90;;;;;;5064747;28;20456;-93
2022/05/15 04:43:56;;;;;;;0.30;0.20;;;12.10;99.90;;;;;;5065566;28;20553;-92
2022/05/15 04:46:26;;;;;;;0.30;0.20;;;12.20;99.90;;;;;;5079442;28;20456;-93
2022/05/15 04:48:53;;;;;;;0.30;0.20;;;12.30;99.90;;;;;;5068231;28;20548;-92
2022/05/15 04:51:20;;;;;;;0.30;0.20;;;12.40;99.90;;;;;;5074846;28;20947;-92
2022/05/15 04:53:47;;;;;;;0.30;0.20;;;12.50;99.90;;;;;;5070734;28;20537;-93
2022/05/15 04:56:14;;;;;;;0.30;0.20;;;12.60;99.90;;;;;;5063310;28;20468;-92
2022/05/15 04:58:41;;;;;;;0.30;0.20;;;12.70;99.90;;;;;;5073375;28;20847;-92
2022/05/15 05:01:08;;;;;;;0.30;0.20;;;12.80;99.90;;;;;;5071633;28;20530;-92
2022/05/15 05:03:36;;;;;;;0.30;0.20;;;12.70;99.90;;;;;;5075905;28;20544;-92
2022/05/15 05:06:04;;;;;;;0.30;0.20;;;12.90;99.90;;;;;;5065206;28;22562;-92
2022/05/15 05:08:31;;;;;;;0.30;0.20;;;13.10;99.90;;;;;;5073335;28;20518;-92
2022/05/15 05:10:58;;;;;;;0.30;0.20;;;13.10;99.90;;;;;;5068373;28;20550;-92
2022/05/15 05:13:25;;;;;;;0.30;0.20;;;13.20;99.90;;;;;;5070001;28;20466;-92
2022/05/15 05:15:52;;;;;;;0.30;0.20;;;13.40;99.90;;;;;;5070736;28;20462;-93
2022/05/15 05:18:19;;;;;;;0.30;0.20;;;13.50;99.90;;;;;;5062824;28;20915;-92
2022/05/15 05:20:48;;;;;;;0.30;0.20;;;13.60;99.90;;;;;;5064379;28;20927;-91
2022/05/15 05:23:15;;;;;;;0.30;0.20;;;13.60;99.90;;;;;;5066701;28;20567;-92
2022/05/15 05:25:43;;;;;;;0.30;0.20;;;13.80;99.90;;;;;;5068215;28;20621;-92
2022/05/15 05:28:10;;;;;;;0.30;0.20;;;13.70;99.90;;;;;;5076485;28;20979;-91
2022/05/15 05:30:38;;;;;;;0.30;0.20;;;13.80;99.90;;;;;;5065678;28;20467;-92
2022/05/15 05:33:06;;;;;;;0.30;0.20;;;14.00;99.90;;;;;;5074342;28;20590;-92
2022/05/15 05:35:34;;;;;;;0.30;0.20;;;14.20;99.90;;;;;;5078580;28;20520;-92
2022/05/15 05:38:03;;;;;;;0.30;0.20;;;14.20;99.90;;;;;;5065657;28;20540;-92
2022/05/15 05:40:30;;;;;;;0.30;0.20;;;14.40;99.90;;;;;;5084428;28;20507;-92
2022/05/15 05:42:57;;;;;;;0.30;0.20;;;14.50;99.90;;;;;;5076480;28;20474;-92
2022/05/15 05:45:24;;;;;;;0.30;0.20;;;14.60;99.90;;;;;;5084130;28;20488;-93
2022/05/15 05:47:52;;;;;;;0.30;0.20;;;14.60;99.90;;;;;;5077218;28;20468;-92
2022/05/15 05:50:21;;;;;;;0.30;0.20;;;14.70;99.90;;;;;;5074114;28;20479;-93
2022/05/15 05:52:49;;;;;;;0.30;0.20;;;14.70;99.90;;;;;;5075106;28;21072;-92
2022/05/15 05:55:20;;;;;;;0.30;0.20;;;14.70;99.90;;;;;;5058091;28;20716;-92
2022/05/15 05:57:48;;;;;;;0.30;0.20;;;14.70;99.90;;;;;;5079033;28;20481;-92
2022/05/15 06:00:19;;;;;;;0.30;0.20;;;14.60;99.90;;;;;;5076601;28;20536;-93
2022/05/15 06:02:46;;;;;;;0.30;0.20;;;14.60;99.90;;;;;;5096115;28;20472;-94
2022/05/15 06:05:12;;;;;;;0.30;0.20;;;14.70;99.90;;;;;;5097639;28;21099;-91
2022/05/15 06:07:39;;;;;;;0.30;0.20;;;14.70;99.90;;;;;;5095662;28;20463;-91
2022/05/15 06:10:09;;;;;;;0.30;0.20;;;14.70;99.90;;;;;;5094574;28;20520;-91
2022/05/15 06:12:40;;;;;;;0.30;0.20;;;14.70;99.90;;;;;;5086950;28;20487;-92
2022/05/15 06:15:08;;;;;;;0.30;0.20;;;14.90;99.90;;;;;;5101476;28;20470;-93
2022/05/15 06:17:35;;;;;;;0.30;0.20;;;14.90;99.90;;;;;;5098444;28;20457;-93
2022/05/15 06:20:07;;;;;;;0.30;0.20;;;15.00;99.90;;;;;;5092610;28;20453;-92
2022/05/15 06:22:34;;;;;;;0.30;0.20;;;14.90;99.90;;;;;;5092785;28;20477;-93
2022/05/15 06:25:01;;;;;;;0.30;0.20;;;15.00;99.90;;;;;;5095232;28;20506;-93
2022/05/15 06:27:28;;;;;;;0.30;0.20;;;15.10;99.90;;;;;;5103342;28;20455;-93
2022/05/15 06:29:58;;;;;;;0.30;0.20;;;15.00;99.90;;;;;;5075149;28;20556;-94
2022/05/15 06:32:26;;;;;;;0.30;0.20;;;14.90;99.90;;;;;;5075958;28;20964;-93
2022/05/15 06:34:54;;;;;;;0.30;0.20;;;15.20;99.90;;;;;;5080411;28;20462;-93
2022/05/15 06:37:21;;;;;;;0.30;0.20;;;15.30;99.90;;;;;;5075982;28;20523;-93
2022/05/15 06:39:48;;;;;;;0.30;0.20;;;15.40;99.90;;;;;;5082535;28;20534;-93
2022/05/15 06:42:15;;;;;;;0.40;0.20;;;15.50;99.90;;;;;;5077356;28;20469;-94
2022/05/15 06:44:42;;;;;;;0.30;0.20;;;15.50;99.90;;;;;;5072601;28;21012;-93
2022/05/15 06:47:11;;;;;;;0.30;0.20;;;15.60;99.90;;;;;;5070843;28;20555;-94
2022/05/15 06:49:38;;;;;;;0.30;0.20;;;15.80;99.90;;;;;;5071546;28;20531;-95
2022/05/15 06:52:06;;;;;;;0.40;0.20;;;15.90;99.90;;;;;;5077691;28;20458;-96
2022/05/15 06:54:33;;;;;;;0.30;0.20;;;15.70;99.90;;;;;;5077243;28;20470;-93
2022/05/15 06:59:45;;;;;;;0.30;0.20;;;16.00;99.90;;;;;;5074043;28;20542;-93
2022/05/15 07:02:13;;;;;;;0.40;0.20;;;16.30;99.90;;;;;;5067453;28;20465;-94
2022/05/15 07:04:40;;;;;;;0.40;0.20;;;16.50;99.90;;;;;;5073437;28;20486;-94
2022/05/15 07:07:08;;;;;;;0.40;0.20;;;16.80;99.90;;;;;;5080254;28;20520;-95
2022/05/15 07:09:35;;;;;;;0.33;0.20;;;16.80;99.90;;;;;;5080420;28;21125;-94
2022/05/15 07:12:03;;;;;;;0.40;0.20;;;16.90;99.90;;;;;;5081460;28;20462;-96
2022/05/15 07:14:30;;;;;;;0.30;0.20;;;16.70;99.90;;;;;;5078036;28;20466;-95
2022/05/15 07:16:57;;;;;;;0.40;0.20;;;17.20;99.90;;;;;;5075488;28;20451;-94
2022/05/15 07:19:25;;;;;;;0.40;0.20;;;17.30;99.90;;;;;;5098110;28;20458;-94
2022/05/15 07:21:52;;;;;;;0.37;0.20;;;17.30;99.60;;;;;;5098576;28;20443;-95
2022/05/15 07:24:20;;;;;;;0.40;0.20;;;17.50;99.90;;;;;;5088099;28;20537;-94
2022/05/15 07:26:47;;;;;;;0.40;0.20;;;17.50;99.90;;;;;;5072151;28;20497;-96
2022/05/15 07:29:15;;;;;;;0.40;0.20;;;17.20;99.90;;;;;;5072529;28;21007;-95
2022/05/15 07:31:43;;;;;;;0.40;0.20;;;17.20;99.90;;;;;;5073763;28;20984;-96
2022/05/15 07:34:13;;;;;;;0.40;0.20;;;17.50;99.90;;;;;;5089544;28;20486;-95
2022/05/15 07:36:43;;;;;;;0.40;0.30;;;18.00;99.90;;;;;;5099645;28;20456;-95
2022/05/15 07:39:10;;;;;;;0.40;0.20;;;17.90;99.90;;;;;;5093973;28;20479;-94
2022/05/15 07:41:37;;;;;;;0.40;0.20;;;18.10;99.90;;;;;;5099685;28;20988;-94
2022/05/15 07:44:04;;;;;;;0.40;0.20;;;18.30;99.70;;;;;;5092143;28;20490;-95
2022/05/15 07:46:31;;;;;;;0.40;0.20;;;18.30;99.70;;;;;;5083231;28;20487;-92
2022/05/15 07:48:58;;;;;;;0.40;0.20;;;18.70;99.90;;;;;;5080447;28;20494;-91
2022/05/15 07:51:26;;;;;;;0.40;0.20;;;18.90;99.80;;;;;;5073744;28;20478;-96
2022/05/15 07:53:54;;;;;;;0.40;0.20;;;18.90;98.80;;;;;;5078638;28;20550;-95
2022/05/15 07:56:21;;;;;;;0.40;0.20;;;18.90;99.90;;;;;;5079883;28;20911;-95
2022/05/15 07:58:49;;;;;;;0.40;0.20;;;19.30;99.90;;;;;;5078995;28;20456;-96
2022/05/15 08:01:16;;;;;;;0.40;0.20;;;19.50;98.50;;;;;;5076673;28;20462;-95
2022/05/15 08:03:44;;;;;;;0.40;0.20;;;19.40;99.30;;;;;;5078778;28;21066;-95
2022/05/15 08:08:59;;;;;;;0.40;0.20;;;19.80;96.40;;;;;;5075447;28;20753;-95
2022/05/15 08:11:28;;;;;;;0.40;0.20;;;20.00;97.50;;;;;;5082526;28;20531;-96
2022/05/15 08:13:56;;;;;;;0.40;0.20;;;19.90;95.90;;;;;;5074400;28;20925;-96
2022/05/15 08:16:24;;;;;;;0.40;0.20;;;20.20;96.50;;;;;;5074668;28;20458;-95
2022/05/15 08:24:37;;;;;;;0.40;0.20;;;20.70;92.50;;;;;;5043940;28;20466;-96
2022/05/15 08:27:05;;;;;;;0.40;0.20;;;20.70;92.20;;;;;;5040669;28;20983;-95
2022/05/15 08:29:33;;;;;;;0.40;0.20;;;20.70;92.80;;;;;;5047902;28;20460;-96
2022/05/15 08:32:00;;;;;;;0.40;0.20;;;20.70;92.30;;;;;;5033805;28;20471;-96
2022/05/15 08:34:28;;;;;;;0.40;0.20;;;20.60;93.20;;;;;;5067232;28;20463;-95
2022/05/15 08:36:55;;;;;;;0.40;0.20;;;20.70;93.00;;;;;;5078871;28;20446;-96
2022/05/15 08:39:23;;;;;;;0.40;0.20;;;21.00;89.40;;;;;;5075888;28;20535;-96
2022/05/15 08:42:00;;;;;;;0.40;0.20;;;21.10;91.00;;;;;;5078690;28;20454;-96
2022/05/15 08:44:33;;;;;;;0.40;0.20;;;21.20;88.80;;;;;;5091361;28;20457;-96
2022/05/15 08:47:17;;;;;;;0.40;0.20;;;21.30;84.40;;;;;;5082549;28;20483;-96
2022/05/15 08:49:49;;;;;;;0.40;0.20;;;21.60;85.40;;;;;;5076488;28;20529;-96
2022/05/15 08:52:18;;;;;;;0.40;0.20;;;21.40;79.60;;;;;;5073908;28;20848;-95
2022/05/15 08:54:53;;;;;;;0.40;0.20;;;21.40;77.90;;;;;;5069869;28;20511;-95
2022/05/15 08:57:32;;;;;;;0.40;0.20;;;21.40;80.00;;;;;;5084749;28;20500;-95
2022/05/15 09:00:01;;;;;;;0.40;0.20;;;21.50;77.20;;;;;;5098617;28;20447;-96
2022/05/15 09:02:29;;;;;;;0.40;0.20;;;21.70;81.10;;;;;;5092824;28;20462;-95
2022/05/15 09:04:56;;;;;;;0.40;0.20;;;21.70;76.30;;;;;;5104291;28;20458;-96
2022/05/15 09:07:36;;;;;;;0.40;0.20;;;21.80;76.60;;;;;;5096954;28;20927;-95
2022/05/15 09:10:17;;;;;;;0.40;0.20;;;22.10;80.70;;;;;;5087476;28;21011;-96
2022/05/15 09:12:51;;;;;;;0.40;0.20;;;22.20;82.30;;;;;;5089795;28;20438;-96
2022/05/15 09:15:22;;;;;;;0.40;0.20;;;22.20;78.00;;;;;;5078677;28;20455;-96
2022/05/15 09:17:57;;;;;;;0.40;0.20;;;22.60;75.40;;;;;;5082502;28;20988;-94
2022/05/15 09:20:37;;;;;;;0.40;0.20;;;22.40;76.40;;;;;;5080717;28;20922;-96
2022/05/15 09:23:10;;;;;;;0.40;0.20;;;22.10;77.20;;;;;;5075967;28;20483;-95
2022/05/15 09:25:38;;;;;;;0.40;0.20;;;22.10;75.50;;;;;;5083492;28;20490;-96
2022/05/15 09:28:08;;;;;;;0.40;0.20;;;22.30;77.10;;;;;;5073984;28;20452;-96
2022/05/15 09:30:39;;;;;;;0.40;0.20;;;22.40;71.40;;;;;;5074929;28;20463;-96
2022/05/15 09:33:06;;;;;;;0.40;0.20;;;22.40;73.30;;;;;;5073850;28;20462;-95
2022/05/15 09:35:38;;;;;;;0.40;0.20;;;22.40;77.20;;;;;;5078198;28;20458;-96
2022/05/15 09:43:42;;;;;;;0.40;0.20;;;22.80;72.30;;;;;;5077245;28;20450;-96
2022/05/15 09:46:14;;;;;;;0.40;0.20;;;22.80;72.70;;;;;;5070440;28;21119;-91
2022/05/15 09:48:50;;;;;;;0.40;0.20;;;23.10;73.80;;;;;;5069951;28;20524;-91
2022/05/15 09:51:39;;;;;;;0.40;0.20;;;23.40;73.60;;;;;;5068899;28;21335;-92
2022/05/15 09:54:06;;;;;;;0.40;0.20;;;23.30;73.00;;;;;;5069286;28;20448;-91
2022/05/15 09:56:35;;;;;;;0.40;0.20;;;23.10;72.70;;;;;;5069242;28;20440;-92
2022/05/15 09:59:11;;;;;;;0.40;0.20;;;23.20;73.60;;;;;;5071621;28;20447;-92
2022/05/15 10:01:41;;;;;;;0.40;0.20;;;23.00;70.50;;;;;;5070193;28;20492;-92
2022/05/15 10:04:20;;;;;;;0.40;0.20;;;23.10;71.90;;;;;;5066210;28;20459;-92
2022/05/15 10:06:51;;;;;;;0.40;0.20;;;23.20;72.10;;;;;;5077776;28;20487;-92
2022/05/15 10:09:25;;;;;;;0.40;0.20;;;23.50;69.30;;;;;;5079969;28;20460;-91
2022/05/15 10:11:59;;;;;;;0.40;0.20;;;23.40;69.40;;;;;;5073123;28;20472;-92
2022/05/15 10:14:34;;;;;;;0.40;0.20;;;23.30;69.50;;;;;;5083714;28;20457;-93
2022/05/15 10:17:03;;;;;;;0.40;0.20;;;23.60;68.70;;;;;;5084257;28;20547;-91
2022/05/15 10:19:38;;;;;;;0.40;0.20;;;23.60;69.80;;;;;;5067971;28;20448;-92
2022/05/15 10:22:17;;;;;;;0.40;0.20;;;23.60;64.00;;;;;;5073166;28;20549;-92
2022/05/15 10:24:46;;;;;;;0.40;0.20;;;23.70;72.90;;;;;;5074549;28;20458;-92
2022/05/15 10:27:19;;;;;;;0.40;0.20;;;23.90;69.00;;;;;;5074922;28;20523;-91
2022/05/15 10:29:53;;;;;;;0.40;0.20;;;23.50;65.90;;;;;;5072496;28;20955;-92
2022/05/15 10:32:28;;;;;;;0.40;0.20;;;23.60;66.20;;;;;;5070177;28;20514;-92
2022/05/15 10:34:55;;;;;;;0.40;0.20;;;23.60;69.60;;;;;;5073840;28;20519;-91
2022/05/15 10:37:49;;;;;;;0.40;0.20;;;23.70;64.70;;;;;;5073662;28;20929;-91
2022/05/15 10:40:23;;;;;;;0.40;0.20;;;23.80;71.30;;;;;;5083774;28;20462;-92
2022/05/15 10:43:00;;;;;;;0.40;0.20;;;24.00;68.50;;;;;;5099298;28;20807;-91
2022/05/15 10:45:35;;;;;;;0.40;0.20;;;24.10;69.60;;;;;;5093212;28;20451;-91
2022/05/15 10:48:30;;;;;;;0.40;0.20;;;24.10;68.00;;;;;;5078184;28;20516;-92
2022/05/15 10:51:03;;;;;;;0.40;0.20;;;24.20;66.60;;;;;;5078255;28;20459;-92
2022/05/15 10:59:44;;;;;;;0.40;0.20;;;23.90;65.70;;;;;;5084551;28;20545;-91
2022/05/15 11:02:42;;;;;;;0.40;0.20;;;23.90;66.60;;;;;;5075220;28;20463;-92
2022/05/15 11:05:14;;;;;;;0.40;0.20;;;24.00;67.90;;;;;;5043199;28;20517;-91
2022/05/15 11:07:48;;;;;;;0.40;0.20;;;24.00;61.50;;;;;;5069494;28;20482;-91
2022/05/15 11:10:23;;;;;;;0.40;0.20;;;24.20;67.00;;;;;;5072431;28;21118;-91
2022/05/15 11:12:59;;;;;;;0.40;0.20;;;24.60;64.70;;;;;;5075541;28;20513;-92
2022/05/15 11:15:39;;;;;;;0.40;0.20;;;24.10;64.70;;;;;;5074742;28;20921;-92
2022/05/15 11:18:24;;;;;;;0.40;0.20;;;24.10;65.50;;;;;;5073928;28;20600;-92
2022/05/15 11:20:56;;;;;;;0.40;0.20;;;24.40;64.20;;;;;;5072540;28;20672;-92
2022/05/15 11:23:29;;;;;;;0.40;0.20;;;24.80;73.00;;;;;;5072132;28;20487;-92
2022/05/15 11:26:00;;;;;;;0.40;0.20;;;24.80;67.40;;;;;;5071360;28;20545;-92
2022/05/15 11:28:34;;;;;;;0.40;0.20;;;24.60;64.80;;;;;;5086227;28;20504;-92
2022/05/15 11:31:05;;;;;;;0.40;0.20;;;24.50;60.00;;;;;;5094492;28;20458;-91
2022/05/15 11:33:49;;;;;;;0.40;0.20;;;24.30;61.70;;;;;;5093013;28;20512;-92
2022/05/15 11:36:30;;;;;;;0.40;0.20;;;24.40;64.70;;;;;;5093369;28;20478;-92
2022/05/15 11:39:05;;;;;;;0.40;0.20;;;24.80;65.80;;;;;;5093893;28;20457;-92
2022/05/15 11:41:41;;;;;;;0.40;0.20;;;24.70;68.20;;;;;;5085127;28;20521;-92
2022/05/15 11:44:12;;;;;;;0.40;0.20;;;24.70;61.60;;;;;;5082480;28;20465;-93
2022/05/15 11:47:00;;;;;;;0.40;0.20;;;24.50;61.00;;;;;;5088776;28;20484;-92
2022/05/15 11:49:37;;;;;;;0.40;0.20;;;24.60;62.00;;;;;;5077740;28;21319;-92
2022/05/15 11:52:18;;;;;;;0.40;0.20;;;24.40;62.10;;;;;;5077134;28;20463;-91
2022/05/15 11:54:48;;;;;;;0.40;0.20;;;24.90;64.10;;;;;;5092933;28;20478;-92
2022/05/15 11:57:36;;;;;;;0.40;0.20;;;25.00;60.30;;;;;;5099835;28;20459;-92
2022/05/15 12:00:11;;;;;;;0.40;0.20;;;25.10;64.10;;;;;;5091835;28;20500;-91
2022/05/15 12:02:54;;;;;;;0.40;0.20;;;25.00;60.10;;;;;;5083147;28;20490;-92
2022/05/15 12:05:40;;;;;;;0.40;0.20;;;25.00;63.50;;;;;;5071698;28;20540;-92
2022/05/15 12:08:29;;;;;;;0.40;0.20;;;24.50;58.90;;;;;;5075504;28;20542;-92
2022/05/15 12:11:12;;;;;;;0.40;0.20;;;24.60;60.50;;;;;;5065200;28;20535;-92
2022/05/15 12:13:41;;;;;;;0.40;0.20;;;24.30;57.90;;;;;;5070614;28;20457;-92
2022/05/15 12:16:22;;;;;;;0.40;0.20;;;24.40;57.00;;;;;;5084787;28;20784;-93
2022/05/15 12:18:56;;;;;;;0.40;0.20;;;24.40;56.90;;;;;;5086696;28;20907;-93
2022/05/15 12:21:33;;;;;;;0.40;0.20;;;24.60;55.80;;;;;;5081272;28;20474;-91
2022/05/15 12:26:53;;;;;;;0.40;0.20;;;25.00;58.40;;;;;;5070824;28;20561;-92
2022/05/15 12:29:36;;;;;;;0.40;0.20;;;25.10;55.90;;;;;;5067458;28;20464;-92
2022/05/15 12:32:10;;;;;;;0.40;0.20;;;25.50;55.10;;;;;;5067176;28;20471;-92
2022/05/15 12:34:46;;;;;;;0.40;0.20;;;25.50;51.20;;;;;;5069753;28;20949;-92
2022/05/15 12:37:20;;;;;;;0.40;0.20;;;25.20;50.40;;;;;;5076002;28;20886;-92
2022/05/15 12:39:52;;;;;;;0.40;0.20;;;25.20;54.30;;;;;;5074747;28;20446;-92
2022/05/15 12:42:23;;;;;;;0.40;0.20;;;25.20;52.00;;;;;;5077867;28;20518;-92
2022/05/15 12:45:03;;;;;;;0.40;0.20;;;25.20;53.80;;;;;;5081546;28;20535;-92
2022/05/15 12:47:32;;;;;;;0.40;0.20;;;25.10;51.70;;;;;;5070843;28;20483;-92
2022/05/15 12:50:03;;;;;;;0.40;0.20;;;25.10;50.10;;;;;;5083886;28;20550;-92
2022/05/15 12:52:33;;;;;;;0.40;0.20;;;25.10;50.80;;;;;;5074185;28;20519;-92
2022/05/15 12:55:03;;;;;;;0.40;0.20;;;25.00;51.90;;;;;;5077907;28;20519;-91
2022/05/15 12:57:30;;;;;;;0.40;0.20;;;25.20;48.50;;;;;;5081643;28;20497;-92
2022/05/15 12:59:58;;;;;;;0.40;0.20;;;24.90;46.60;;;;;;5070817;28;20532;-93
2022/05/15 13:02:33;;;;;;;0.40;0.20;;;25.10;48.60;;;;;;5072926;28;20479;-91
2022/05/15 13:05:02;;;;;;;0.40;0.20;;;25.20;49.60;;;;;;5070800;28;20447;-92
2022/05/15 13:07:36;;;;;;;0.40;0.20;;;25.40;50.10;;;;;;5071340;28;20640;-93
2022/05/15 13:10:08;;;;;;;0.40;0.20;;;25.80;49.30;;;;;;5072617;28;20472;-91
2022/05/15 13:12:35;;;;;;;0.40;0.20;;;25.80;47.20;;;;;;5071497;28;20501;-92
2022/05/15 13:15:03;;;;;;;0.40;0.20;;;25.80;47.00;;;;;;5070559;28;20464;-92
2022/05/15 13:17:36;;;;;;;0.40;0.20;;;25.80;46.50;;;;;;5071123;28;21108;-92
2022/05/15 13:20:09;;;;;;;0.40;0.20;;;25.70;49.90;;;;;;5069571;28;20485;-92
2022/05/15 13:22:38;;;;;;;0.40;0.20;;;26.00;51.40;;;;;;5074468;28;20598;-92
2022/05/15 13:25:11;;;;;;;0.40;0.20;;;26.30;44.40;;;;;;5069124;28;20474;-92
2022/05/15 13:27:42;;;;;;;0.40;0.20;;;26.20;49.70;;;;;;5068762;28;20548;-92
2022/05/15 13:30:13;;;;;;;0.40;0.20;;;26.30;49.80;;;;;;5071003;28;20459;-92
2022/05/15 13:32:43;;;;;;;0.40;0.20;;;26.30;47.00;;;;;;5070440;28;20468;-93